sensor_id;sensor_type;location;lat;lon;timestamp;P1;durP1;ratioP1;P2;durP2;ratioP2
48871;SDS011;36154;51.674;7.824;2022-08-05T00:00:07;1.30;;;0.70;;
48871;SDS011;36154;51.674;7.824;2022-08-05T00:02:33;2.03;;;0.90;;
48871;SDS011;36154;51.674;7.824;2022-08-05T00:04:58;3.45;;;0.80;;
48871;SDS011;36154;51.674;7.824;2022-08-05T00:07:23;1.20;;;0.47;;
48871;SDS011;36154;51.674;7.824;2022-08-05T00:09:49;2.20;;;0.80;;
48871;SDS011;36154;51.674;7.824;2022-08-05T00:12:14;2.22;;;1.00;;
48871;SDS011;36154;51.674;7.824;2022-08-05T00:14:39;7.43;;;1.23;;
48871;SDS011;36154;51.674;7.824;2022-08-05T00:17:04;2.55;;;1.00;;
48871;SDS011;36154;51.674;7.824;2022-08-05T00:19:30;1.10;;;0.93;;
48871;SDS011;36154;51.674;7.824;2022-08-05T00:21:55;4.60;;;0.95;;
48871;SDS011;36154;51.674;7.824;2022-08-05T00:24:21;1.48;;;1.00;;
48871;SDS011;36154;51.674;7.824;2022-08-05T00:26:46;2.58;;;1.20;;
48871;SDS011;36154;51.674;7.824;2022-08-05T00:29:12;2.03;;;0.98;;
48871;SDS011;36154;51.674;7.824;2022-08-05T00:31:37;3.20;;;1.10;;
48871;SDS011;36154;51.674;7.824;2022-08-05T00:34:02;2.90;;;1.00;;
48871;SDS011;36154;51.674;7.824;2022-08-05T00:36:29;2.92;;;1.42;;
48871;SDS011;36154;51.674;7.824;2022-08-05T00:38:54;1.65;;;1.00;;
48871;SDS011;36154;51.674;7.824;2022-08-05T00:41:29;2.80;;;1.25;;
48871;SDS011;36154;51.674;7.824;2022-08-05T00:43:56;2.47;;;0.93;;
48871;SDS011;36154;51.674;7.824;2022-08-05T00:46:22;2.70;;;0.98;;
48871;SDS011;36154;51.674;7.824;2022-08-05T00:48:48;1.25;;;0.73;;
48871;SDS011;36154;51.674;7.824;2022-08-05T00:51:13;1.40;;;0.93;;
48871;SDS011;36154;51.674;7.824;2022-08-05T00:53:39;2.47;;;1.27;;
48871;SDS011;36154;51.674;7.824;2022-08-05T00:56:04;2.60;;;1.10;;
48871;SDS011;36154;51.674;7.824;2022-08-05T00:58:30;2.17;;;0.90;;
48871;SDS011;36154;51.674;7.824;2022-08-05T01:00:56;1.38;;;0.80;;
48871;SDS011;36154;51.674;7.824;2022-08-05T01:03:21;4.47;;;0.80;;
48871;SDS011;36154;51.674;7.824;2022-08-05T01:05:48;4.97;;;1.15;;
48871;SDS011;36154;51.674;7.824;2022-08-05T01:08:14;1.77;;;1.00;;
48871;SDS011;36154;51.674;7.824;2022-08-05T01:10:40;1.80;;;1.27;;
48871;SDS011;36154;51.674;7.824;2022-08-05T01:13:22;2.08;;;0.80;;
48871;SDS011;36154;51.674;7.824;2022-08-05T01:15:51;0.70;;;0.70;;
48871;SDS011;36154;51.674;7.824;2022-08-05T01:18:22;1.08;;;0.70;;
48871;SDS011;36154;51.674;7.824;2022-08-05T01:23:33;1.25;;;0.70;;
48871;SDS011;36154;51.674;7.824;2022-08-05T01:26:25;1.83;;;0.90;;
48871;SDS011;36154;51.674;7.824;2022-08-05T01:29:03;0.90;;;0.90;;
48871;SDS011;36154;51.674;7.824;2022-08-05T01:36:52;1.73;;;0.70;;
48871;SDS011;36154;51.674;7.824;2022-08-05T01:39:22;1.88;;;1.17;;
48871;SDS011;36154;51.674;7.824;2022-08-05T01:41:49;2.78;;;1.00;;
48871;SDS011;36154;51.674;7.824;2022-08-05T01:44:16;2.17;;;1.00;;
48871;SDS011;36154;51.674;7.824;2022-08-05T01:46:44;1.40;;;1.10;;
48871;SDS011;36154;51.674;7.824;2022-08-05T01:49:12;0.73;;;0.73;;
48871;SDS011;36154;51.674;7.824;2022-08-05T01:51:40;1.13;;;0.90;;
48871;SDS011;36154;51.674;7.824;2022-08-05T01:54:07;2.65;;;1.17;;
48871;SDS011;36154;51.674;7.824;2022-08-05T01:56:36;1.33;;;0.98;;
48871;SDS011;36154;51.674;7.824;2022-08-05T01:59:07;2.05;;;0.93;;
48871;SDS011;36154;51.674;7.824;2022-08-05T02:01:36;1.33;;;0.90;;
48871;SDS011;36154;51.674;7.824;2022-08-05T02:04:02;1.30;;;0.90;;
48871;SDS011;36154;51.674;7.824;2022-08-05T02:06:29;2.25;;;1.20;;
48871;SDS011;36154;51.674;7.824;2022-08-05T02:08:54;3.80;;;1.17;;
48871;SDS011;36154;51.674;7.824;2022-08-05T02:11:20;2.03;;;1.05;;
48871;SDS011;36154;51.674;7.824;2022-08-05T02:13:53;1.35;;;0.73;;
48871;SDS011;36154;51.674;7.824;2022-08-05T02:16:26;1.50;;;1.20;;
48871;SDS011;36154;51.674;7.824;2022-08-05T02:19:00;1.20;;;1.00;;
48871;SDS011;36154;51.674;7.824;2022-08-05T02:21:30;1.13;;;0.80;;
48871;SDS011;36154;51.674;7.824;2022-08-05T02:24:02;1.70;;;0.90;;
48871;SDS011;36154;51.674;7.824;2022-08-05T02:26:37;1.35;;;1.08;;
48871;SDS011;36154;51.674;7.824;2022-08-05T02:29:10;3.35;;;1.13;;
48871;SDS011;36154;51.674;7.824;2022-08-05T02:31:40;3.47;;;1.20;;
48871;SDS011;36154;51.674;7.824;2022-08-05T02:34:08;1.95;;;1.15;;
48871;SDS011;36154;51.674;7.824;2022-08-05T02:36:37;1.85;;;1.17;;
48871;SDS011;36154;51.674;7.824;2022-08-05T02:39:06;1.20;;;0.90;;
48871;SDS011;36154;51.674;7.824;2022-08-05T02:41:34;2.65;;;1.30;;
48871;SDS011;36154;51.674;7.824;2022-08-05T02:44:00;1.95;;;1.30;;
48871;SDS011;36154;51.674;7.824;2022-08-05T02:46:30;2.72;;;1.20;;
48871;SDS011;36154;51.674;7.824;2022-08-05T02:48:56;3.03;;;1.10;;
48871;SDS011;36154;51.674;7.824;2022-08-05T02:51:21;2.33;;;1.30;;
48871;SDS011;36154;51.674;7.824;2022-08-05T02:53:48;1.92;;;1.45;;
48871;SDS011;36154;51.674;7.824;2022-08-05T02:56:14;3.75;;;1.42;;
48871;SDS011;36154;51.674;7.824;2022-08-05T02:58:40;3.38;;;1.45;;
48871;SDS011;36154;51.674;7.824;2022-08-05T03:01:08;2.25;;;1.35;;
48871;SDS011;36154;51.674;7.824;2022-08-05T03:03:38;2.15;;;1.30;;
48871;SDS011;36154;51.674;7.824;2022-08-05T03:06:07;2.80;;;1.50;;
48871;SDS011;36154;51.674;7.824;2022-08-05T03:08:35;3.47;;;1.80;;
48871;SDS011;36154;51.674;7.824;2022-08-05T03:11:02;3.92;;;1.85;;
48871;SDS011;36154;51.674;7.824;2022-08-05T03:13:27;3.40;;;1.83;;
48871;SDS011;36154;51.674;7.824;2022-08-05T03:15:53;3.72;;;1.80;;
48871;SDS011;36154;51.674;7.824;2022-08-05T03:18:18;4.00;;;2.40;;
48871;SDS011;36154;51.674;7.824;2022-08-05T03:20:43;3.65;;;1.90;;
48871;SDS011;36154;51.674;7.824;2022-08-05T03:23:09;3.08;;;1.80;;
48871;SDS011;36154;51.674;7.824;2022-08-05T03:25:36;2.67;;;2.03;;
48871;SDS011;36154;51.674;7.824;2022-08-05T03:28:02;5.88;;;2.33;;
48871;SDS011;36154;51.674;7.824;2022-08-05T03:30:30;2.55;;;1.60;;
48871;SDS011;36154;51.674;7.824;2022-08-05T03:32:57;3.83;;;2.10;;
48871;SDS011;36154;51.674;7.824;2022-08-05T03:35:24;4.20;;;1.95;;
48871;SDS011;36154;51.674;7.824;2022-08-05T03:37:51;4.35;;;2.20;;
48871;SDS011;36154;51.674;7.824;2022-08-05T03:40:17;5.68;;;2.65;;
48871;SDS011;36154;51.674;7.824;2022-08-05T03:42:42;4.40;;;2.67;;
48871;SDS011;36154;51.674;7.824;2022-08-05T03:45:08;4.13;;;2.20;;
48871;SDS011;36154;51.674;7.824;2022-08-05T03:47:33;5.22;;;2.38;;
48871;SDS011;36154;51.674;7.824;2022-08-05T03:49:59;6.57;;;2.72;;
48871;SDS011;36154;51.674;7.824;2022-08-05T03:52:25;6.35;;;2.83;;
48871;SDS011;36154;51.674;7.824;2022-08-05T03:55:03;5.80;;;2.65;;
48871;SDS011;36154;51.674;7.824;2022-08-05T03:57:35;4.25;;;2.75;;
48871;SDS011;36154;51.674;7.824;2022-08-05T04:00:21;3.45;;;1.80;;
48871;SDS011;36154;51.674;7.824;2022-08-05T04:02:50;4.53;;;2.92;;
48871;SDS011;36154;51.674;7.824;2022-08-05T04:05:18;6.32;;;2.60;;
48871;SDS011;36154;51.674;7.824;2022-08-05T04:07:45;4.18;;;3.22;;
48871;SDS011;36154;51.674;7.824;2022-08-05T04:10:11;4.82;;;3.40;;
48871;SDS011;36154;51.674;7.824;2022-08-05T04:12:36;4.40;;;2.63;;
48871;SDS011;36154;51.674;7.824;2022-08-05T04:15:02;2.60;;;1.60;;
48871;SDS011;36154;51.674;7.824;2022-08-05T04:17:27;2.78;;;1.45;;
48871;SDS011;36154;51.674;7.824;2022-08-05T04:19:53;2.08;;;1.48;;
48871;SDS011;36154;51.674;7.824;2022-08-05T04:22:18;2.25;;;1.70;;
48871;SDS011;36154;51.674;7.824;2022-08-05T04:24:44;4.25;;;1.75;;
48871;SDS011;36154;51.674;7.824;2022-08-05T04:27:10;5.88;;;2.63;;
48871;SDS011;36154;51.674;7.824;2022-08-05T04:29:37;2.97;;;1.50;;
48871;SDS011;36154;51.674;7.824;2022-08-05T04:32:02;2.40;;;1.35;;
48871;SDS011;36154;51.674;7.824;2022-08-05T04:34:28;3.03;;;1.30;;
48871;SDS011;36154;51.674;7.824;2022-08-05T04:36:53;2.90;;;1.45;;
48871;SDS011;36154;51.674;7.824;2022-08-05T04:39:18;3.35;;;1.92;;
48871;SDS011;36154;51.674;7.824;2022-08-05T04:41:45;5.03;;;1.90;;
48871;SDS011;36154;51.674;7.824;2022-08-05T04:44:11;4.65;;;2.00;;
48871;SDS011;36154;51.674;7.824;2022-08-05T04:46:37;4.53;;;1.70;;
48871;SDS011;36154;51.674;7.824;2022-08-05T04:49:03;8.75;;;2.25;;
48871;SDS011;36154;51.674;7.824;2022-08-05T04:51:28;2.38;;;2.00;;
48871;SDS011;36154;51.674;7.824;2022-08-05T04:53:54;2.85;;;1.30;;
48871;SDS011;36154;51.674;7.824;2022-08-05T04:56:19;1.83;;;1.27;;
48871;SDS011;36154;51.674;7.824;2022-08-05T04:58:45;2.47;;;1.73;;
48871;SDS011;36154;51.674;7.824;2022-08-05T05:01:10;3.10;;;1.58;;
48871;SDS011;36154;51.674;7.824;2022-08-05T05:03:36;3.35;;;1.25;;
48871;SDS011;36154;51.674;7.824;2022-08-05T05:06:01;1.48;;;1.35;;
48871;SDS011;36154;51.674;7.824;2022-08-05T05:08:27;2.30;;;1.70;;
48871;SDS011;36154;51.674;7.824;2022-08-05T05:10:54;2.83;;;1.63;;
48871;SDS011;36154;51.674;7.824;2022-08-05T05:13:20;2.88;;;1.65;;
48871;SDS011;36154;51.674;7.824;2022-08-05T05:15:46;3.05;;;1.58;;
48871;SDS011;36154;51.674;7.824;2022-08-05T05:18:14;3.45;;;1.80;;
48871;SDS011;36154;51.674;7.824;2022-08-05T05:20:44;2.20;;;1.58;;
48871;SDS011;36154;51.674;7.824;2022-08-05T05:23:11;2.00;;;1.80;;
48871;SDS011;36154;51.674;7.824;2022-08-05T05:25:39;2.17;;;1.88;;
48871;SDS011;36154;51.674;7.824;2022-08-05T05:28:05;5.60;;;2.20;;
48871;SDS011;36154;51.674;7.824;2022-08-05T05:30:30;4.05;;;2.30;;
48871;SDS011;36154;51.674;7.824;2022-08-05T05:32:56;2.20;;;1.58;;
48871;SDS011;36154;51.674;7.824;2022-08-05T05:35:23;5.28;;;1.80;;
48871;SDS011;36154;51.674;7.824;2022-08-05T05:37:49;4.32;;;1.90;;
48871;SDS011;36154;51.674;7.824;2022-08-05T05:40:16;3.30;;;2.13;;
48871;SDS011;36154;51.674;7.824;2022-08-05T05:42:44;3.78;;;1.90;;
48871;SDS011;36154;51.674;7.824;2022-08-05T05:45:10;2.35;;;2.00;;
48871;SDS011;36154;51.674;7.824;2022-08-05T05:47:35;3.67;;;2.45;;
48871;SDS011;36154;51.674;7.824;2022-08-05T05:50:01;3.78;;;2.75;;
48871;SDS011;36154;51.674;7.824;2022-08-05T05:52:27;4.63;;;2.83;;
48871;SDS011;36154;51.674;7.824;2022-08-05T05:54:53;5.50;;;2.70;;
48871;SDS011;36154;51.674;7.824;2022-08-05T05:57:18;2.80;;;2.35;;
48871;SDS011;36154;51.674;7.824;2022-08-05T05:59:44;2.25;;;1.83;;
48871;SDS011;36154;51.674;7.824;2022-08-05T06:02:11;3.25;;;1.50;;
48871;SDS011;36154;51.674;7.824;2022-08-05T06:04:36;3.55;;;1.63;;
48871;SDS011;36154;51.674;7.824;2022-08-05T06:07:02;3.25;;;1.42;;
48871;SDS011;36154;51.674;7.824;2022-08-05T06:09:27;1.58;;;1.20;;
48871;SDS011;36154;51.674;7.824;2022-08-05T06:11:53;2.65;;;1.40;;
48871;SDS011;36154;51.674;7.824;2022-08-05T06:14:19;1.85;;;1.40;;
48871;SDS011;36154;51.674;7.824;2022-08-05T06:16:44;1.35;;;1.30;;
48871;SDS011;36154;51.674;7.824;2022-08-05T06:19:10;1.30;;;1.20;;
48871;SDS011;36154;51.674;7.824;2022-08-05T06:21:36;2.20;;;1.10;;
48871;SDS011;36154;51.674;7.824;2022-08-05T06:24:01;3.60;;;1.77;;
48871;SDS011;36154;51.674;7.824;2022-08-05T06:26:27;15.20;;;3.40;;
48871;SDS011;36154;51.674;7.824;2022-08-05T06:28:53;14.23;;;2.95;;
48871;SDS011;36154;51.674;7.824;2022-08-05T06:31:18;9.35;;;2.60;;
48871;SDS011;36154;51.674;7.824;2022-08-05T06:33:44;8.07;;;2.65;;
48871;SDS011;36154;51.674;7.824;2022-08-05T06:36:09;7.07;;;2.15;;
48871;SDS011;36154;51.674;7.824;2022-08-05T06:38:35;6.72;;;2.33;;
48871;SDS011;36154;51.674;7.824;2022-08-05T06:41:00;6.10;;;2.60;;
48871;SDS011;36154;51.674;7.824;2022-08-05T06:43:26;7.82;;;2.63;;
48871;SDS011;36154;51.674;7.824;2022-08-05T06:45:51;6.70;;;2.15;;
48871;SDS011;36154;51.674;7.824;2022-08-05T06:48:17;5.32;;;2.38;;
48871;SDS011;36154;51.674;7.824;2022-08-05T06:50:42;2.40;;;2.08;;
48871;SDS011;36154;51.674;7.824;2022-08-05T06:53:08;4.30;;;2.00;;
48871;SDS011;36154;51.674;7.824;2022-08-05T06:55:33;2.45;;;1.70;;
48871;SDS011;36154;51.674;7.824;2022-08-05T06:57:59;2.85;;;2.10;;
48871;SDS011;36154;51.674;7.824;2022-08-05T07:00:25;2.22;;;1.77;;
48871;SDS011;36154;51.674;7.824;2022-08-05T07:02:50;3.63;;;1.70;;
48871;SDS011;36154;51.674;7.824;2022-08-05T07:05:16;3.75;;;2.00;;
48871;SDS011;36154;51.674;7.824;2022-08-05T07:07:42;2.17;;;1.90;;
48871;SDS011;36154;51.674;7.824;2022-08-05T07:10:09;2.20;;;1.83;;
48871;SDS011;36154;51.674;7.824;2022-08-05T07:12:35;2.10;;;1.77;;
48871;SDS011;36154;51.674;7.824;2022-08-05T07:15:19;2.63;;;2.00;;
48871;SDS011;36154;51.674;7.824;2022-08-05T07:18:03;2.50;;;2.00;;
48871;SDS011;36154;51.674;7.824;2022-08-05T07:20:28;2.15;;;1.98;;
48871;SDS011;36154;51.674;7.824;2022-08-05T07:22:54;1.83;;;1.67;;
48871;SDS011;36154;51.674;7.824;2022-08-05T07:25:19;2.08;;;1.48;;
48871;SDS011;36154;51.674;7.824;2022-08-05T07:27:46;2.67;;;1.80;;
48871;SDS011;36154;51.674;7.824;2022-08-05T07:30:14;1.98;;;1.67;;
48871;SDS011;36154;51.674;7.824;2022-08-05T07:32:40;2.78;;;1.90;;
48871;SDS011;36154;51.674;7.824;2022-08-05T07:35:06;3.42;;;2.20;;
48871;SDS011;36154;51.674;7.824;2022-08-05T07:37:32;2.55;;;2.22;;
48871;SDS011;36154;51.674;7.824;2022-08-05T07:39:58;5.78;;;2.67;;
48871;SDS011;36154;51.674;7.824;2022-08-05T07:42:23;4.80;;;2.60;;
48871;SDS011;36154;51.674;7.824;2022-08-05T07:44:49;3.25;;;2.50;;
48871;SDS011;36154;51.674;7.824;2022-08-05T07:47:15;3.42;;;2.47;;
48871;SDS011;36154;51.674;7.824;2022-08-05T07:49:40;2.75;;;2.55;;
48871;SDS011;36154;51.674;7.824;2022-08-05T07:52:06;3.25;;;3.00;;
48871;SDS011;36154;51.674;7.824;2022-08-05T07:54:31;5.25;;;2.90;;
48871;SDS011;36154;51.674;7.824;2022-08-05T07:56:57;5.32;;;2.42;;
48871;SDS011;36154;51.674;7.824;2022-08-05T07:59:23;2.95;;;2.63;;
48871;SDS011;36154;51.674;7.824;2022-08-05T08:01:49;4.28;;;2.88;;
48871;SDS011;36154;51.674;7.824;2022-08-05T08:04:15;4.97;;;2.63;;
48871;SDS011;36154;51.674;7.824;2022-08-05T08:06:40;4.93;;;2.75;;
48871;SDS011;36154;51.674;7.824;2022-08-05T08:09:06;6.85;;;2.95;;
48871;SDS011;36154;51.674;7.824;2022-08-05T08:11:31;7.50;;;2.90;;
48871;SDS011;36154;51.674;7.824;2022-08-05T08:13:57;6.82;;;2.60;;
48871;SDS011;36154;51.674;7.824;2022-08-05T08:16:22;7.32;;;3.10;;
48871;SDS011;36154;51.674;7.824;2022-08-05T08:18:48;5.97;;;3.17;;
48871;SDS011;36154;51.674;7.824;2022-08-05T08:21:13;4.13;;;3.03;;
48871;SDS011;36154;51.674;7.824;2022-08-05T08:23:39;4.50;;;2.75;;
48871;SDS011;36154;51.674;7.824;2022-08-05T08:26:04;3.97;;;2.42;;
48871;SDS011;36154;51.674;7.824;2022-08-05T08:28:30;6.85;;;2.72;;
48871;SDS011;36154;51.674;7.824;2022-08-05T08:30:56;3.90;;;2.70;;
48871;SDS011;36154;51.674;7.824;2022-08-05T08:33:22;3.45;;;2.70;;
48871;SDS011;36154;51.674;7.824;2022-08-05T08:35:47;3.90;;;2.63;;
48871;SDS011;36154;51.674;7.824;2022-08-05T08:38:13;4.05;;;2.72;;
48871;SDS011;36154;51.674;7.824;2022-08-05T08:40:40;4.63;;;2.50;;
48871;SDS011;36154;51.674;7.824;2022-08-05T08:43:06;2.75;;;2.28;;
48871;SDS011;36154;51.674;7.824;2022-08-05T08:45:36;2.90;;;2.20;;
48871;SDS011;36154;51.674;7.824;2022-08-05T08:48:02;5.47;;;2.40;;
48871;SDS011;36154;51.674;7.824;2022-08-05T08:50:31;2.28;;;1.80;;
48871;SDS011;36154;51.674;7.824;2022-08-05T08:53:01;4.10;;;2.03;;
48871;SDS011;36154;51.674;7.824;2022-08-05T08:55:29;2.65;;;1.80;;
48871;SDS011;36154;51.674;7.824;2022-08-05T08:57:56;3.28;;;1.60;;
48871;SDS011;36154;51.674;7.824;2022-08-05T09:00:23;2.45;;;1.70;;
48871;SDS011;36154;51.674;7.824;2022-08-05T09:02:48;4.57;;;1.63;;
48871;SDS011;36154;51.674;7.824;2022-08-05T09:05:16;4.15;;;1.63;;
48871;SDS011;36154;51.674;7.824;2022-08-05T09:07:41;6.03;;;1.83;;
48871;SDS011;36154;51.674;7.824;2022-08-05T09:10:06;4.13;;;1.58;;
48871;SDS011;36154;51.674;7.824;2022-08-05T09:12:32;5.30;;;1.42;;
48871;SDS011;36154;51.674;7.824;2022-08-05T09:14:59;2.45;;;1.40;;
48871;SDS011;36154;51.674;7.824;2022-08-05T09:17:26;3.15;;;1.50;;
48871;SDS011;36154;51.674;7.824;2022-08-05T09:19:51;2.95;;;1.50;;
48871;SDS011;36154;51.674;7.824;2022-08-05T09:22:17;1.48;;;1.20;;
48871;SDS011;36154;51.674;7.824;2022-08-05T09:24:42;3.53;;;1.40;;
48871;SDS011;36154;51.674;7.824;2022-08-05T09:27:31;3.47;;;1.35;;
48871;SDS011;36154;51.674;7.824;2022-08-05T09:29:58;3.10;;;1.52;;
48871;SDS011;36154;51.674;7.824;2022-08-05T09:32:32;2.28;;;1.38;;
48871;SDS011;36154;51.674;7.824;2022-08-05T09:35:03;2.67;;;1.15;;
48871;SDS011;36154;51.674;7.824;2022-08-05T09:37:35;3.10;;;1.35;;
48871;SDS011;36154;51.674;7.824;2022-08-05T09:40:00;2.58;;;1.17;;
48871;SDS011;36154;51.674;7.824;2022-08-05T09:42:25;3.00;;;1.30;;
48871;SDS011;36154;51.674;7.824;2022-08-05T09:45:04;2.00;;;1.25;;
48871;SDS011;36154;51.674;7.824;2022-08-05T09:47:31;2.10;;;1.30;;
48871;SDS011;36154;51.674;7.824;2022-08-05T09:49:56;5.53;;;1.30;;
48871;SDS011;36154;51.674;7.824;2022-08-05T09:52:23;5.57;;;1.42;;
48871;SDS011;36154;51.674;7.824;2022-08-05T09:54:57;5.90;;;2.42;;
48871;SDS011;36154;51.674;7.824;2022-08-05T10:00:10;7.15;;;3.50;;
48871;SDS011;36154;51.674;7.824;2022-08-05T10:02:49;7.78;;;3.33;;
48871;SDS011;36154;51.674;7.824;2022-08-05T10:05:23;4.38;;;2.60;;
48871;SDS011;36154;51.674;7.824;2022-08-05T10:10:32;3.08;;;2.50;;
48871;SDS011;36154;51.674;7.824;2022-08-05T10:13:01;3.80;;;2.55;;
48871;SDS011;36154;51.674;7.824;2022-08-05T10:15:32;4.82;;;2.25;;
48871;SDS011;36154;51.674;7.824;2022-08-05T10:20:46;2.60;;;1.80;;
48871;SDS011;36154;51.674;7.824;2022-08-05T10:23:23;3.17;;;1.75;;
48871;SDS011;36154;51.674;7.824;2022-08-05T10:25:52;4.13;;;1.63;;
48871;SDS011;36154;51.674;7.824;2022-08-05T10:28:19;2.78;;;1.35;;
48871;SDS011;36154;51.674;7.824;2022-08-05T10:30:44;1.40;;;1.30;;
48871;SDS011;36154;51.674;7.824;2022-08-05T10:33:10;2.08;;;1.30;;
48871;SDS011;36154;51.674;7.824;2022-08-05T10:35:35;4.35;;;1.42;;
48871;SDS011;36154;51.674;7.824;2022-08-05T10:38:01;3.17;;;1.77;;
48871;SDS011;36154;51.674;7.824;2022-08-05T10:40:36;2.40;;;1.30;;
48871;SDS011;36154;51.674;7.824;2022-08-05T10:43:21;3.47;;;1.38;;
48871;SDS011;36154;51.674;7.824;2022-08-05T10:45:56;2.58;;;1.13;;
48871;SDS011;36154;51.674;7.824;2022-08-05T10:48:29;1.40;;;1.27;;
48871;SDS011;36154;51.674;7.824;2022-08-05T10:50:56;3.88;;;1.30;;
48871;SDS011;36154;51.674;7.824;2022-08-05T10:56:13;1.88;;;0.90;;
48871;SDS011;36154;51.674;7.824;2022-08-05T11:01:36;1.73;;;1.10;;
48871;SDS011;36154;51.674;7.824;2022-08-05T11:09:25;3.97;;;1.17;;
48871;SDS011;36154;51.674;7.824;2022-08-05T11:15:15;3.42;;;1.13;;
48871;SDS011;36154;51.674;7.824;2022-08-05T11:17:41;1.23;;;0.88;;
48871;SDS011;36154;51.674;7.824;2022-08-05T11:28:41;1.25;;;0.88;;
48871;SDS011;36154;51.674;7.824;2022-08-05T11:36:58;2.72;;;0.98;;
48871;SDS011;36154;51.674;7.824;2022-08-05T11:39:10;1.75;;;0.80;;
48871;SDS011;36154;51.674;7.824;2022-08-05T11:41:37;1.13;;;0.85;;
48871;SDS011;36154;51.674;7.824;2022-08-05T11:46:32;1.02;;;0.75;;
48871;SDS011;36154;51.674;7.824;2022-08-05T11:49:11;2.03;;;1.20;;
48871;SDS011;36154;51.674;7.824;2022-08-05T11:51:42;1.50;;;0.70;;
48871;SDS011;36154;51.674;7.824;2022-08-05T11:54:10;3.20;;;0.85;;
48871;SDS011;36154;51.674;7.824;2022-08-05T11:59:18;1.70;;;0.82;;
48871;SDS011;36154;51.674;7.824;2022-08-05T12:02:03;1.50;;;0.82;;
48871;SDS011;36154;51.674;7.824;2022-08-05T12:04:46;2.70;;;0.80;;
48871;SDS011;36154;51.674;7.824;2022-08-05T12:07:15;1.63;;;0.70;;
48871;SDS011;36154;51.674;7.824;2022-08-05T12:09:42;1.25;;;0.63;;
48871;SDS011;36154;51.674;7.824;2022-08-05T12:12:23;1.25;;;0.73;;
48871;SDS011;36154;51.674;7.824;2022-08-05T12:14:51;1.88;;;0.80;;
48871;SDS011;36154;51.674;7.824;2022-08-05T12:17:17;0.82;;;0.70;;
48871;SDS011;36154;51.674;7.824;2022-08-05T12:22:15;1.33;;;0.63;;
48871;SDS011;36154;51.674;7.824;2022-08-05T12:24:43;1.00;;;0.68;;
48871;SDS011;36154;51.674;7.824;2022-08-05T12:27:17;2.35;;;0.90;;
48871;SDS011;36154;51.674;7.824;2022-08-05T12:29:44;1.20;;;0.80;;
48871;SDS011;36154;51.674;7.824;2022-08-05T12:32:09;1.60;;;0.88;;
48871;SDS011;36154;51.674;7.824;2022-08-05T12:34:36;0.85;;;0.70;;
48871;SDS011;36154;51.674;7.824;2022-08-05T12:37:04;2.08;;;0.70;;
48871;SDS011;36154;51.674;7.824;2022-08-05T12:39:35;2.15;;;0.75;;
48871;SDS011;36154;51.674;7.824;2022-08-05T12:42:02;1.60;;;0.55;;
48871;SDS011;36154;51.674;7.824;2022-08-05T12:44:33;1.85;;;0.75;;
48871;SDS011;36154;51.674;7.824;2022-08-05T12:46:58;1.08;;;0.70;;
48871;SDS011;36154;51.674;7.824;2022-08-05T12:49:24;1.02;;;0.75;;
48871;SDS011;36154;51.674;7.824;2022-08-05T12:51:51;1.38;;;0.70;;
48871;SDS011;36154;51.674;7.824;2022-08-05T12:56:52;1.92;;;0.70;;
48871;SDS011;36154;51.674;7.824;2022-08-05T12:59:22;2.17;;;0.90;;
48871;SDS011;36154;51.674;7.824;2022-08-05T13:02:02;1.27;;;0.70;;
48871;SDS011;36154;51.674;7.824;2022-08-05T13:04:30;1.73;;;1.10;;
48871;SDS011;36154;51.674;7.824;2022-08-05T13:06:58;1.27;;;0.80;;
48871;SDS011;36154;51.674;7.824;2022-08-05T13:09:25;2.42;;;0.70;;
48871;SDS011;36154;51.674;7.824;2022-08-05T13:11:54;2.13;;;0.60;;
48871;SDS011;36154;51.674;7.824;2022-08-05T13:14:34;2.47;;;0.65;;
48871;SDS011;36154;51.674;7.824;2022-08-05T13:17:04;1.88;;;0.70;;
48871;SDS011;36154;51.674;7.824;2022-08-05T13:19:34;1.83;;;0.70;;
48871;SDS011;36154;51.674;7.824;2022-08-05T13:22:00;1.88;;;0.50;;
48871;SDS011;36154;51.674;7.824;2022-08-05T13:24:25;0.90;;;0.60;;
48871;SDS011;36154;51.674;7.824;2022-08-05T13:26:51;0.83;;;0.40;;
48871;SDS011;36154;51.674;7.824;2022-08-05T13:29:16;2.53;;;0.50;;
48871;SDS011;36154;51.674;7.824;2022-08-05T13:31:44;1.80;;;0.57;;
48871;SDS011;36154;51.674;7.824;2022-08-05T13:34:09;0.57;;;0.50;;
48871;SDS011;36154;51.674;7.824;2022-08-05T13:36:35;1.20;;;0.60;;
48871;SDS011;36154;51.674;7.824;2022-08-05T13:39:02;1.25;;;0.60;;
48871;SDS011;36154;51.674;7.824;2022-08-05T13:41:29;2.58;;;1.05;;
48871;SDS011;36154;51.674;7.824;2022-08-05T13:43:54;1.40;;;0.70;;
48871;SDS011;36154;51.674;7.824;2022-08-05T13:46:23;2.10;;;0.60;;
48871;SDS011;36154;51.674;7.824;2022-08-05T13:48:49;1.25;;;0.50;;
48871;SDS011;36154;51.674;7.824;2022-08-05T13:51:14;2.55;;;0.80;;
48871;SDS011;36154;51.674;7.824;2022-08-05T13:53:40;0.68;;;0.52;;
48871;SDS011;36154;51.674;7.824;2022-08-05T13:56:06;3.70;;;0.70;;
48871;SDS011;36154;51.674;7.824;2022-08-05T13:58:32;1.67;;;0.60;;
48871;SDS011;36154;51.674;7.824;2022-08-05T14:00:57;0.68;;;0.50;;
48871;SDS011;36154;51.674;7.824;2022-08-05T14:03:23;1.15;;;0.47;;
48871;SDS011;36154;51.674;7.824;2022-08-05T14:05:51;0.45;;;0.40;;
48871;SDS011;36154;51.674;7.824;2022-08-05T14:08:16;1.13;;;0.60;;
48871;SDS011;36154;51.674;7.824;2022-08-05T14:10:42;0.68;;;0.50;;
48871;SDS011;36154;51.674;7.824;2022-08-05T14:13:07;0.52;;;0.40;;
48871;SDS011;36154;51.674;7.824;2022-08-05T14:15:33;0.63;;;0.43;;
48871;SDS011;36154;51.674;7.824;2022-08-05T14:17:59;0.73;;;0.68;;
48871;SDS011;36154;51.674;7.824;2022-08-05T14:20:25;1.00;;;0.52;;
48871;SDS011;36154;51.674;7.824;2022-08-05T14:22:51;1.20;;;0.60;;
48871;SDS011;36154;51.674;7.824;2022-08-05T14:25:16;0.70;;;0.60;;
48871;SDS011;36154;51.674;7.824;2022-08-05T14:27:42;1.23;;;0.63;;
48871;SDS011;36154;51.674;7.824;2022-08-05T14:30:08;2.92;;;0.82;;
48871;SDS011;36154;51.674;7.824;2022-08-05T14:32:34;1.73;;;0.60;;
48871;SDS011;36154;51.674;7.824;2022-08-05T14:35:00;2.67;;;0.70;;
48871;SDS011;36154;51.674;7.824;2022-08-05T14:37:26;1.13;;;0.65;;
48871;SDS011;36154;51.674;7.824;2022-08-05T14:39:52;0.88;;;0.80;;
48871;SDS011;36154;51.674;7.824;2022-08-05T14:42:17;2.10;;;0.60;;
48871;SDS011;36154;51.674;7.824;2022-08-05T14:44:43;1.50;;;1.00;;
48871;SDS011;36154;51.674;7.824;2022-08-05T14:47:09;0.93;;;0.63;;
48871;SDS011;36154;51.674;7.824;2022-08-05T14:49:35;2.70;;;0.80;;
48871;SDS011;36154;51.674;7.824;2022-08-05T14:52:01;0.73;;;0.73;;
48871;SDS011;36154;51.674;7.824;2022-08-05T14:54:26;2.30;;;0.70;;
48871;SDS011;36154;51.674;7.824;2022-08-05T14:56:51;1.20;;;0.70;;
48871;SDS011;36154;51.674;7.824;2022-08-05T14:59:16;2.28;;;0.60;;
48871;SDS011;36154;51.674;7.824;2022-08-05T15:01:42;0.73;;;0.57;;
48871;SDS011;36154;51.674;7.824;2022-08-05T15:04:07;2.00;;;0.60;;
48871;SDS011;36154;51.674;7.824;2022-08-05T15:06:35;2.30;;;0.60;;
48871;SDS011;36154;51.674;7.824;2022-08-05T15:09:00;1.80;;;0.55;;
48871;SDS011;36154;51.674;7.824;2022-08-05T15:11:26;0.68;;;0.63;;
48871;SDS011;36154;51.674;7.824;2022-08-05T15:13:51;1.95;;;0.60;;
48871;SDS011;36154;51.674;7.824;2022-08-05T15:16:17;0.57;;;0.32;;
48871;SDS011;36154;51.674;7.824;2022-08-05T15:18:42;2.78;;;0.90;;
48871;SDS011;36154;51.674;7.824;2022-08-05T15:21:07;0.77;;;0.38;;
48871;SDS011;36154;51.674;7.824;2022-08-05T15:23:33;0.90;;;0.63;;
48871;SDS011;36154;51.674;7.824;2022-08-05T15:25:58;1.10;;;0.55;;
48871;SDS011;36154;51.674;7.824;2022-08-05T15:28:24;0.93;;;0.38;;
48871;SDS011;36154;51.674;7.824;2022-08-05T15:30:49;2.35;;;0.50;;
48871;SDS011;36154;51.674;7.824;2022-08-05T15:33:14;21.25;;;3.40;;
48871;SDS011;36154;51.674;7.824;2022-08-05T15:35:40;24.10;;;4.47;;
48871;SDS011;36154;51.674;7.824;2022-08-05T15:38:05;30.67;;;3.97;;
48871;SDS011;36154;51.674;7.824;2022-08-05T15:40:30;16.15;;;2.10;;
48871;SDS011;36154;51.674;7.824;2022-08-05T15:42:56;17.75;;;2.20;;